Bei Facebook empfehlenBei Twitter postenGoogle plusPinterest

Das Wetter im Erzgebirge am 29.04.2015

Wetter und Klima am 29.04.2015 Holzhau im Erzgebirge (630m ü.NN)
Letzte gemessene Temperatur und Uhrzeit der Messung23:45:00 Uhr2.70 °C
Temperatur (Maximum / Höchstwert) und Uhrzeit der Messung16:30:00 Uhr12.90 °C
Temperatur (Minimum / Tiefstwert) und Uhrzeit der Messung06:00:00-2.60 °C
Errechneter Absolutwert der Temperaturschwankungen zwischen Tmin und Tmax des Tages15.50 K
Errechnete Tagesmitteltemperatur4.59792 °C
Gesamt - Niederschlag des Tages (in flüssiger Form)1.03 Liter / m²
Luftdruck (Maximum / Höchstwert) und Zeitpunkt der Messung11:00:00 Uhr1018.80 hPa
Luftdruck (Minimum / Tiefstwert) und Zeitpunkt der Messung23:30:00 Uhr1014.60 hPa
Errechneter Absolutwert der Luftdruckschwankungen des Tages4.20 hPa
Höchste gemessene Windgeschwindigkeit und Uhrzeit der Messung09:45:00 Uhr6.12 km/h
Errechnete Windhäufigkeit in Relation zu den Messwerten des Tages1.04167 %
Niedrigste Windkühle (Windchill) und Zeitpunkt der Messung06:00:00 Uhr-2.60 °C
Taupunkt (Maximum / Höchstwert) und Uhrzeit der Messung12:15:00 Uhr3.50 °C
Taupunkt (Minimum / Tiefstwert) und Uhrzeit der Messung06:00:00-3.90 °C
Anzahl der automatisch eingelesenen Messwerte 96

Detaillierte Wetter- und Klima- Messwerte für den 29.04.2015 in Holzhau im Erzgebirge (630m ü.NN)
ZeitTemperaturLuftdruckRel. LuftfeuchteWindWindrichtungWindchillTaupunktNiederschlag l/m²
23:45:002.70 °C1015.00 hPa79.00 %-0.60 °C1.03
23:30:002.60 °C1014.60 hPa80.00 %-0.50 °C1.03
23:15:002.40 °C1014.90 hPa80.00 %-0.70 °C1.03
23:00:002.30 °C1014.90 hPa79.00 %-1.00 °C1.03
22:45:002.40 °C1015.00 hPa79.00 %-0.90 °C1.03
22:30:002.10 °C1015.10 hPa77.00 %-1.50 °C1.03
22:15:002.20 °C1015.20 hPa76.00 %-1.60 °C1.03
22:00:002.50 °C1015.10 hPa75.00 %-1.50 °C1.03
21:45:002.80 °C1015.10 hPa74.00 %-1.40 °C1.03
21:30:003.00 °C1015.40 hPa73.00 %-1.40 °C1.03
21:15:003.40 °C1015.50 hPa71.00 %-1.30 °C1.03
21:00:004.10 °C1015.50 hPa70.00 %-0.90 °C1.03
20:45:004.60 °C1015.50 hPa69.00 %-0.60 °C1.03
20:30:005.10 °C1015.40 hPa68.00 %-0.30 °C1.03
20:15:005.90 °C1015.40 hPa66.00 %0.00 °C1.03
20:00:006.80 °C1015.30 hPa64.00 %0.50 °C1.03
19:45:007.40 °C1015.30 hPa61.00 %0.40 °C1.03
19:30:007.90 °C1015.60 hPa59.00 %0.40 °C1.03
19:15:008.40 °C1015.50 hPa57.00 %0.40 °C1.03
19:00:008.80 °C1015.40 hPa57.00 %0.80 °C1.03
18:45:009.20 °C1015.70 hPa55.00 %0.60 °C1.03
18:30:009.60 °C1015.90 hPa56.00 %1.30 °C1.03
18:15:009.90 °C1015.90 hPa55.00 %1.30 °C1.03
18:00:0010.40 °C1015.80 hPa54.00 %1.50 °C1.03
17:45:0011.20 °C1015.90 hPa53.00 %2.00 °C1.03
17:30:0011.80 °C1015.90 hPa48.00 %1.20 °C1.03
17:15:0011.90 °C1015.90 hPa45.00 %0.40 °C1.03
17:00:0012.10 °C1016.00 hPa42.00 %-0.40 °C1.03
16:45:0012.80 °C1016.00 hPa43.00 %0.50 °C1.03
16:30:0012.90 °C1016.30 hPa47.00 %1.90 °C1.03
16:15:0012.60 °C1016.20 hPa47.00 %1.60 °C1.03
16:00:0012.60 °C1016.40 hPa47.00 %1.60 °C1.03
15:45:0012.60 °C1016.50 hPa48.00 %1.90 °C1.03
15:30:0012.70 °C1016.60 hPa48.00 %2.00 °C1.03
15:15:0012.60 °C1016.70 hPa48.00 %1.90 °C1.03
15:00:0012.70 °C1016.90 hPa49.00 %2.30 °C1.03
14:45:0012.40 °C1017.10 hPa50.00 %2.30 °C1.03
14:30:0011.90 °C1017.30 hPa53.00 %2.60 °C1.03
14:15:0011.50 °C1017.40 hPa56.00 %3.00 °C1.03
14:00:0010.80 °C1017.50 hPa54.00 %1.90 °C1.03
13:45:0010.70 °C1017.90 hPa56.00 %2.30 °C1.03
13:30:0010.50 °C1018.00 hPa56.00 %2.10 °C1.03
13:15:0010.40 °C1018.20 hPa57.00 %2.30 °C1.03
13:00:0010.10 °C1018.20 hPa60.00 %2.70 °C1.03
12:45:009.70 °C1018.20 hPa61.00 %2.60 °C1.03
12:30:009.40 °C1018.30 hPa66.00 %3.40 °C1.03
12:15:009.10 °C1018.20 hPa68.00 %3.50 °C1.03
12:00:008.60 °C1018.50 hPa70.00 %3.40 °C1.03
11:45:008.50 °C1018.60 hPa69.00 %3.10 °C1.03
11:30:007.90 °C1018.70 hPa73.00 %3.40 °C1.03
11:15:007.50 °C1018.70 hPa74.00 %3.20 °C1.03
11:00:007.30 °C1018.80 hPa77.00 %3.50 °C1.03
10:45:006.60 °C1018.80 hPa77.00 %2.90 °C1.03
10:30:006.10 °C1018.80 hPa78.00 %2.60 °C1.03
10:15:005.60 °C1018.70 hPa81.00 %2.60 °C1.03
10:00:005.10 °C1018.70 hPa86.00 %3.00 °C1.03
09:45:004.90 °C1018.80 hPa89.00 %6.12 km/hWNW3.60 °C3.20 °C1.03
09:30:004.50 °C1018.80 hPa93.00 %3.50 °C1.03
09:15:003.90 °C1018.70 hPa94.00 %3.00 °C1.03
09:00:003.60 °C1018.40 hPa93.00 %2.60 °C0.51
08:45:003.30 °C1018.30 hPa93.00 %2.30 °C0.51
08:30:002.80 °C1018.30 hPa93.00 %1.80 °C 
08:15:002.40 °C1018.30 hPa93.00 %1.40 °C 
08:00:001.60 °C1018.20 hPa93.00 %0.60 °C 
07:45:001.00 °C1018.30 hPa93.00 %0.00 °C 
07:30:000.10 °C1018.50 hPa93.00 %-0.90 °C 
07:15:00-1.10 °C1018.40 hPa93.00 %-2.20 °C 
07:00:00-1.90 °C1018.30 hPa93.00 %-3.00 °C 
06:45:00-2.20 °C1018.30 hPa92.00 %-3.50 °C 
06:30:00-2.40 °C1018.30 hPa92.00 %-3.70 °C 
06:15:00-2.50 °C1018.30 hPa92.00 %-3.80 °C 
06:00:00-2.60 °C1018.20 hPa92.00 %-3.90 °C 
05:45:00-2.60 °C1018.20 hPa92.00 %-3.90 °C 
05:30:00-2.30 °C1018.10 hPa92.00 %-3.60 °C 
05:15:00-2.00 °C1018.00 hPa92.00 %-3.30 °C 
05:00:00-1.90 °C1018.20 hPa93.00 %-3.00 °C 
04:45:00-1.70 °C1018.10 hPa93.00 %-2.80 °C 
04:30:00-1.90 °C1018.00 hPa92.00 %-3.20 °C 
04:15:00-1.70 °C1018.00 hPa92.00 %-3.00 °C 
04:00:00-1.50 °C1017.80 hPa92.00 %-2.80 °C 
03:45:00-1.10 °C1017.80 hPa92.00 %-2.40 °C 
03:30:00-1.00 °C1017.50 hPa92.00 %-2.30 °C 
03:15:00-1.10 °C1017.30 hPa92.00 %-2.40 °C 
03:00:00-1.00 °C1017.20 hPa92.00 %-2.30 °C 
02:45:00-0.80 °C1017.00 hPa92.00 %-2.10 °C 
02:30:00-0.70 °C1016.90 hPa92.00 %-2.00 °C 
02:15:00-0.70 °C1017.00 hPa92.00 %-2.00 °C 
02:00:00-0.70 °C1017.00 hPa92.00 %-2.00 °C 
01:45:00-1.10 °C1017.00 hPa92.00 %-2.40 °C 
01:30:00-1.10 °C1017.10 hPa92.00 %-2.40 °C 
01:15:00-0.90 °C1016.90 hPa92.00 %-2.20 °C 
01:00:00-0.90 °C1016.90 hPa92.00 %-2.20 °C 
00:45:00-0.70 °C1017.10 hPa92.00 %-2.00 °C 
00:30:00-0.50 °C1016.70 hPa92.00 %-1.80 °C 
00:15:00-0.40 °C1016.70 hPa92.00 %-1.70 °C 
00:00:00-0.40 °C1016.40 hPa92.00 %-1.70 °C 

Permanenter Link zu dieser Seite: Wetter im Erzgebirge am 29.04.2015
Performance-Info: Die Erstellung der Seite / Statistik(en) / Tabelle(n) erforderte 5 Datenbankserver-Abfrage(n) und dauerte 102 Millisekunden. (Dieser Messwert ist von der Gesamt-Auslastung des Servers abhängig.)
Erzgebirge - Wetter | Erzgebirge - Wetter (Mobilgeräte) | Komplette Klimadatenbank